createdAt,value
2018-06-17T00:00:54.094Z,15.27
2018-06-17T00:03:22.291Z,13.60
2018-06-17T00:05:50.497Z,13.80
2018-06-17T00:08:19.263Z,12.80
2018-06-17T00:10:48.607Z,13.50
2018-06-17T00:13:16.809Z,13.40
2018-06-17T00:15:45.930Z,12.97
2018-06-17T00:18:14.501Z,14.07
2018-06-17T00:20:43.161Z,13.97
2018-06-17T00:23:11.349Z,13.70
2018-06-17T00:25:39.573Z,13.33
2018-06-17T00:28:07.837Z,13.30
2018-06-17T00:30:36.049Z,12.87
2018-06-17T00:33:04.267Z,13.77
2018-06-17T00:35:32.481Z,14.03
2018-06-17T00:38:00.683Z,12.50
2018-06-17T00:40:28.902Z,13.30
2018-06-17T00:42:57.153Z,14.07
2018-06-17T00:45:25.385Z,13.50
2018-06-17T00:47:53.607Z,13.03
2018-06-17T00:50:21.837Z,13.70
2018-06-17T00:52:50.097Z,13.30
2018-06-17T00:55:18.300Z,13.83
2018-06-17T00:57:48.961Z,13.13
2018-06-17T01:00:17.448Z,13.73
2018-06-17T01:02:46.034Z,12.67
2018-06-17T01:05:14.501Z,13.53
2018-06-17T01:07:42.869Z,14.00
2018-06-17T01:10:11.077Z,14.53
2018-06-17T01:12:39.585Z,13.37
2018-06-17T01:15:07.945Z,13.23
2018-06-17T01:17:36.419Z,14.87
2018-06-17T01:20:05.132Z,14.80
2018-06-17T01:22:33.345Z,14.90
2018-06-17T01:25:01.542Z,13.50
2018-06-17T01:27:29.731Z,13.47
2018-06-17T01:29:57.969Z,14.63
2018-06-17T01:32:26.149Z,14.60
2018-06-17T01:34:54.352Z,15.70
2018-06-17T01:37:22.550Z,14.50
2018-06-17T01:39:50.781Z,14.37
2018-06-17T01:42:18.966Z,15.00
2018-06-17T01:44:47.165Z,14.30
2018-06-17T01:47:17.423Z,15.77
2018-06-17T01:49:45.966Z,15.60
2018-06-17T01:52:14.177Z,15.20
2018-06-17T01:54:42.399Z,14.30
2018-06-17T01:57:10.621Z,13.57
2018-06-17T01:59:38.867Z,14.53
2018-06-17T02:02:07.142Z,14.33
2018-06-17T02:04:40.781Z,14.73
2018-06-17T02:07:14.390Z,14.90
2018-06-17T02:09:47.968Z,15.87
2018-06-17T02:12:16.165Z,15.77
2018-06-17T02:14:49.818Z,16.07
2018-06-17T02:17:18.615Z,15.40
2018-06-17T02:19:46.968Z,15.90
2018-06-17T02:22:15.205Z,15.43
2018-06-17T02:24:43.401Z,15.70
2018-06-17T02:27:11.613Z,16.00
2018-06-17T02:29:39.835Z,16.07
2018-06-17T02:32:08.337Z,15.50
2018-06-17T02:34:36.897Z,25.67
2018-06-17T02:37:05.350Z,16.13
2018-06-17T02:39:33.558Z,15.70
2018-06-17T02:42:01.766Z,16.37
2018-06-17T02:44:29.960Z,15.23
2018-06-17T02:47:03.329Z,15.70
2018-06-17T02:49:34.070Z,15.30
2018-06-17T02:52:07.801Z,14.83
2018-06-17T02:54:48.159Z,15.87
2018-06-17T02:57:18.709Z,15.77
2018-06-17T02:59:47.171Z,15.73
2018-06-17T03:02:15.757Z,15.53
2018-06-17T03:04:43.948Z,14.07
2018-06-17T03:07:12.204Z,14.57
2018-06-17T03:09:40.387Z,14.60
2018-06-17T03:12:08.658Z,15.73
2018-06-17T03:14:36.841Z,16.50
2018-06-17T03:17:05.069Z,15.97
2018-06-17T03:19:33.268Z,14.73
2018-06-17T03:22:01.480Z,15.37
2018-06-17T03:24:35.055Z,15.60
2018-06-17T03:27:08.689Z,14.70
2018-06-17T03:29:42.297Z,17.10
2018-06-17T03:32:15.885Z,16.87
2018-06-17T03:34:44.073Z,15.60
2018-06-17T03:37:12.331Z,16.30
2018-06-17T03:39:40.566Z,14.90
2018-06-17T03:42:08.786Z,15.67
2018-06-17T03:44:36.990Z,16.37
2018-06-17T03:47:05.209Z,16.90
2018-06-17T03:49:33.411Z,15.60
2018-06-17T03:52:08.246Z,15.83
2018-06-17T03:54:36.460Z,15.07
2018-06-17T03:57:04.404Z,15.77
2018-06-17T03:59:32.609Z,15.40
2018-06-17T04:02:00.875Z,16.27
2018-06-17T04:04:29.823Z,15.30
2018-06-17T04:06:58.025Z,14.53
2018-06-17T04:09:26.253Z,16.23
2018-06-17T04:11:54.442Z,14.43
2018-06-17T04:14:22.653Z,13.73
2018-06-17T04:16:50.844Z,14.60
2018-06-17T04:19:19.049Z,15.20
2018-06-17T04:21:47.244Z,16.00
2018-06-17T04:24:15.470Z,14.80
2018-06-17T04:26:43.681Z,15.10
2018-06-17T04:29:11.898Z,14.87
2018-06-17T04:31:40.104Z,15.13
2018-06-17T04:34:09.133Z,15.17
2018-06-17T04:36:37.353Z,15.53
2018-06-17T04:39:07.666Z,14.40
2018-06-17T04:41:35.922Z,15.83
2018-06-17T04:44:04.129Z,14.60
2018-06-17T04:46:32.341Z,15.40
2018-06-17T04:49:00.532Z,14.77
2018-06-17T04:51:28.734Z,13.43
2018-06-17T04:53:56.929Z,13.77
2018-06-17T04:56:25.149Z,14.83
2018-06-17T04:58:53.676Z,13.00
2018-06-17T05:01:21.825Z,14.43
2018-06-17T05:03:50.040Z,13.90
2018-06-17T05:06:18.201Z,15.63
2018-06-17T05:08:46.369Z,13.57
2018-06-17T05:11:14.557Z,13.23
2018-06-17T05:13:42.724Z,12.80
2018-06-17T05:16:10.880Z,13.50
2018-06-17T05:18:39.037Z,14.37
2018-06-17T05:21:07.230Z,13.33
2018-06-17T05:23:35.395Z,12.67
2018-06-17T05:26:03.573Z,13.20
2018-06-17T05:28:31.752Z,11.67
2018-06-17T05:31:00.002Z,13.10
2018-06-17T05:33:28.157Z,11.30
2018-06-17T05:35:56.335Z,12.30
2018-06-17T05:38:24.486Z,12.20
2018-06-17T05:40:52.638Z,11.67
2018-06-17T05:43:20.773Z,11.93
2018-06-17T05:45:48.926Z,11.90
2018-06-17T05:48:17.081Z,12.50
2018-06-17T05:50:51.762Z,14.40
2018-06-17T05:53:19.926Z,12.60
2018-06-17T05:58:22.661Z,12.40
2018-06-17T06:00:50.817Z,12.80
2018-06-17T06:03:19.002Z,12.10
2018-06-17T06:05:47.166Z,12.10
2018-06-17T06:08:15.351Z,11.97
2018-06-17T06:10:43.514Z,12.50
2018-06-17T06:13:11.666Z,12.37
2018-06-17T06:15:39.946Z,13.27
2018-06-17T06:18:08.148Z,13.40
2018-06-17T06:20:36.326Z,13.20
2018-06-17T06:23:04.505Z,13.07
2018-06-17T06:25:32.671Z,12.20
2018-06-17T06:28:00.841Z,12.27
2018-06-17T06:30:29.029Z,12.73
2018-06-17T06:32:57.253Z,12.80
2018-06-17T06:35:25.403Z,13.00
2018-06-17T06:37:53.719Z,10.87
2018-06-17T06:40:21.933Z,11.87
2018-06-17T06:42:50.138Z,10.70
2018-06-17T06:45:18.314Z,11.37
2018-06-17T06:47:46.518Z,10.33
2018-06-17T06:50:14.670Z,9.50
2018-06-17T06:52:42.870Z,9.70
2018-06-17T06:55:11.099Z,8.47
2018-06-17T06:57:39.298Z,9.33
2018-06-17T07:00:07.535Z,9.10
2018-06-17T07:02:47.308Z,8.10
2018-06-17T07:05:26.877Z,8.40
2018-06-17T07:08:06.574Z,8.30
2018-06-17T07:10:34.803Z,8.30
2018-06-17T07:13:02.981Z,7.80
2018-06-17T07:15:42.372Z,13.87
2018-06-17T07:18:41.682Z,9.27
2018-06-17T07:21:10.249Z,7.70
2018-06-17T07:23:38.443Z,7.50
2018-06-17T07:26:43.749Z,8.30
2018-06-17T07:29:24.625Z,7.67
2018-06-17T07:31:52.847Z,8.23
2018-06-17T07:34:21.044Z,6.43
2018-06-17T07:36:49.210Z,7.47
2018-06-17T07:40:58.386Z,7.63
2018-06-17T07:43:26.559Z,6.17
2018-06-17T07:45:54.713Z,8.20
2018-06-17T07:49:44.049Z,8.30
2018-06-17T07:52:24.613Z,7.90
2018-06-17T07:54:52.797Z,7.93
2018-06-17T07:57:22.254Z,7.60
2018-06-17T07:59:50.413Z,6.97
2018-06-17T08:02:18.884Z,7.80
2018-06-17T08:04:47.109Z,7.53
2018-06-17T08:07:15.273Z,7.60
2018-06-17T08:09:43.441Z,7.00
2018-06-17T08:12:12.254Z,7.60
2018-06-17T08:14:40.510Z,8.10
2018-06-17T08:17:08.722Z,9.27
2018-06-17T08:19:36.973Z,9.70
2018-06-17T08:22:05.213Z,7.90
2018-06-17T08:24:33.858Z,7.70
2018-06-17T08:27:01.989Z,8.57
2018-06-17T08:29:30.154Z,8.10
2018-06-17T08:31:58.305Z,8.47
2018-06-17T08:34:26.549Z,9.03
2018-06-17T08:36:54.709Z,8.50
2018-06-17T08:39:23.845Z,8.87
2018-06-17T08:41:51.995Z,7.73
2018-06-17T08:44:20.568Z,7.20
2018-06-17T08:46:49.368Z,8.73
2018-06-17T08:49:18.017Z,7.33
2018-06-17T08:51:46.149Z,7.57
2018-06-17T08:54:14.415Z,7.47
2018-06-17T08:56:42.591Z,6.87
2018-06-17T08:59:10.770Z,7.90
2018-06-17T09:01:38.973Z,7.23
2018-06-17T09:04:07.309Z,7.30
2018-06-17T09:06:35.570Z,7.07
2018-06-17T09:09:06.002Z,6.10
2018-06-17T09:11:34.197Z,7.83
2018-06-17T09:14:02.505Z,7.10
2018-06-17T09:16:30.701Z,7.40
2018-06-17T09:18:58.917Z,5.90
2018-06-17T09:21:27.171Z,5.20
2018-06-17T09:23:55.308Z,6.90
2018-06-17T09:26:23.524Z,5.90
2018-06-17T09:28:52.184Z,7.87
2018-06-17T09:31:20.463Z,12.70
2018-06-17T09:33:48.675Z,13.97
2018-06-17T09:36:16.873Z,7.60
2018-06-17T09:38:45.107Z,6.50
2018-06-17T09:41:13.301Z,5.83
2018-06-17T09:43:41.505Z,5.67
2018-06-17T09:46:09.716Z,6.37
2018-06-17T09:48:37.929Z,6.40
2018-06-17T09:51:06.192Z,6.27
2018-06-17T09:53:34.401Z,6.40
2018-06-17T09:56:02.689Z,6.00
2018-06-17T09:58:30.987Z,5.90
2018-06-17T10:00:59.117Z,6.13
2018-06-17T10:03:27.313Z,5.60
2018-06-17T10:05:55.529Z,6.53
2018-06-17T10:08:23.738Z,6.30
2018-06-17T10:10:56.889Z,5.60
2018-06-17T10:13:26.253Z,5.70
2018-06-17T10:15:54.521Z,6.43
2018-06-17T10:18:23.441Z,6.17
2018-06-17T10:20:51.672Z,5.67
2018-06-17T10:23:19.962Z,5.57
2018-06-17T10:25:48.193Z,5.70
2018-06-17T10:28:16.777Z,6.13
2018-06-17T10:30:46.162Z,5.80
2018-06-17T10:33:14.489Z,4.67
2018-06-17T10:35:43.613Z,5.97
2018-06-17T10:38:11.864Z,6.97
2018-06-17T10:40:40.055Z,50.63
2018-06-17T10:43:13.609Z,11.50
2018-06-17T10:45:42.101Z,5.83
2018-06-17T10:48:10.537Z,5.83
2018-06-17T10:50:38.501Z,6.10
2018-06-17T10:53:06.900Z,5.10
2018-06-17T10:55:35.240Z,5.40
2018-06-17T10:58:03.512Z,5.73
2018-06-17T11:00:31.723Z,5.63
2018-06-17T11:02:59.902Z,5.00
2018-06-17T11:05:28.197Z,6.27
2018-06-17T11:07:56.367Z,5.40
2018-06-17T11:10:24.575Z,5.67
2018-06-17T11:12:52.772Z,5.73
2018-06-17T11:15:20.991Z,4.77
2018-06-17T11:17:49.214Z,5.03
2018-06-17T11:20:17.427Z,4.70
2018-06-17T11:22:45.626Z,4.70
2018-06-17T11:25:13.840Z,4.07
2018-06-17T11:27:42.021Z,4.60
2018-06-17T11:30:10.210Z,3.97
2018-06-17T11:32:38.449Z,4.67
2018-06-17T11:35:06.650Z,4.77
2018-06-17T11:37:34.921Z,4.30
2018-06-17T11:40:03.158Z,5.00
2018-06-17T11:42:31.397Z,5.00
2018-06-17T11:44:59.680Z,4.67
2018-06-17T11:47:27.866Z,5.10
2018-06-17T11:49:56.126Z,4.60
2018-06-17T11:52:24.321Z,4.80
2018-06-17T11:54:52.453Z,4.73
2018-06-17T11:57:20.597Z,5.40
2018-06-17T11:59:48.794Z,8.90
2018-06-17T12:02:17.036Z,9.00
2018-06-17T12:04:45.193Z,5.50
2018-06-17T12:07:13.338Z,4.70
2018-06-17T12:09:41.539Z,4.90
2018-06-17T12:12:09.682Z,5.50
2018-06-17T12:14:37.901Z,4.80
2018-06-17T12:17:05.997Z,5.20
2018-06-17T12:19:34.168Z,4.97
2018-06-17T12:22:02.457Z,4.90
2018-06-17T12:24:30.610Z,4.70
2018-06-17T12:26:58.790Z,6.07
2018-06-17T12:29:26.942Z,5.33
2018-06-17T12:31:55.121Z,4.80
2018-06-17T12:34:23.279Z,7.33
2018-06-17T12:36:51.464Z,31.70
2018-06-17T12:39:19.605Z,5.70
2018-06-17T12:41:47.765Z,6.30
2018-06-17T12:44:16.551Z,5.00
2018-06-17T12:46:44.709Z,4.70
2018-06-17T12:49:13.004Z,10.37
2018-06-17T12:51:41.164Z,6.17
2018-06-17T12:54:09.370Z,4.87
2018-06-17T12:56:37.630Z,6.00
2018-06-17T12:59:05.812Z,7.50
2018-06-17T13:01:34.026Z,5.00
2018-06-17T13:04:02.279Z,25.17
2018-06-17T13:06:30.437Z,6.27
2018-06-17T13:08:58.641Z,7.47
2018-06-17T13:11:26.816Z,5.30
2018-06-17T13:13:54.991Z,4.47
2018-06-17T13:16:23.214Z,5.10
2018-06-17T13:18:51.415Z,4.60
2018-06-17T13:21:19.605Z,4.67
2018-06-17T13:23:47.798Z,4.80
2018-06-17T13:26:16.061Z,4.73
2018-06-17T13:28:44.252Z,4.77
2018-06-17T13:31:12.490Z,5.17
2018-06-17T13:33:40.618Z,5.50
2018-06-17T13:36:08.785Z,4.53
2018-06-17T13:38:36.962Z,6.30
2018-06-17T13:41:05.150Z,4.50
2018-06-17T13:43:33.321Z,5.40
2018-06-17T13:46:01.582Z,4.50
2018-06-17T13:48:29.782Z,4.20
2018-06-17T13:50:57.961Z,5.10
2018-06-17T13:53:26.218Z,3.93
2018-06-17T13:55:54.514Z,4.73
2018-06-17T13:58:22.705Z,4.87
2018-06-17T14:00:50.929Z,4.10
2018-06-17T14:03:19.128Z,4.37
2018-06-17T14:05:47.073Z,3.50
2018-06-17T14:08:15.273Z,4.70
2018-06-17T14:10:43.490Z,3.60
2018-06-17T14:13:11.713Z,3.13
2018-06-17T14:15:39.913Z,3.57
2018-06-17T14:18:08.145Z,3.30
2018-06-17T14:20:36.341Z,3.77
2018-06-17T14:23:04.546Z,4.50
2018-06-17T14:25:32.734Z,4.20
2018-06-17T14:28:00.957Z,3.93
2018-06-17T14:30:29.158Z,3.77
2018-06-17T14:32:57.346Z,3.80
2018-06-17T14:35:25.750Z,3.93
2018-06-17T14:37:53.974Z,3.77
2018-06-17T14:40:22.189Z,3.37
2018-06-17T14:42:55.862Z,3.50
2018-06-17T14:45:29.542Z,3.70
2018-06-17T14:48:03.153Z,3.40
2018-06-17T14:50:36.790Z,4.30
2018-06-17T14:53:07.126Z,3.43
2018-06-17T14:55:35.302Z,3.43
2018-06-17T14:58:03.537Z,3.53
2018-06-17T15:00:31.794Z,3.70
2018-06-17T15:02:59.962Z,3.40
2018-06-17T15:05:28.142Z,3.40
2018-06-17T15:07:56.298Z,3.70
2018-06-17T15:10:24.493Z,4.20
2018-06-17T15:12:52.665Z,3.70
2018-06-17T15:15:20.898Z,3.80
2018-06-17T15:17:49.045Z,3.50
2018-06-17T15:20:17.267Z,3.90
2018-06-17T15:22:45.458Z,3.50
2018-06-17T15:25:13.815Z,3.53
2018-06-17T15:27:41.967Z,3.40
2018-06-17T15:30:10.134Z,3.33
2018-06-17T15:32:43.826Z,3.73
2018-06-17T15:36:20.006Z,3.07
2018-06-17T15:38:57.311Z,3.30
2018-06-17T15:41:26.677Z,3.43
2018-06-17T15:43:57.068Z,2.90
2018-06-17T15:46:25.778Z,3.17
2018-06-17T15:48:54.007Z,3.43
2018-06-17T15:51:22.154Z,3.40
2018-06-17T15:53:50.387Z,3.57
2018-06-17T15:56:18.589Z,4.30
2018-06-17T15:58:46.779Z,3.50
2018-06-17T16:01:15.268Z,3.93
2018-06-17T16:03:43.479Z,3.33
2018-06-17T16:06:11.661Z,3.00
2018-06-17T16:08:39.884Z,3.93
2018-06-17T16:11:08.115Z,3.80
2018-06-17T16:13:41.693Z,3.30
2018-06-17T16:16:15.403Z,2.90
2018-06-17T16:18:48.898Z,3.20
2018-06-17T16:21:17.207Z,3.30
2018-06-17T16:23:45.538Z,3.67
2018-06-17T16:26:13.751Z,3.87
2018-06-17T16:28:42.078Z,3.50
2018-06-17T16:31:10.293Z,3.73
2018-06-17T16:33:38.766Z,3.63
2018-06-17T16:36:06.981Z,3.70
2018-06-17T16:38:35.235Z,3.10
2018-06-17T16:41:03.462Z,3.50
2018-06-17T16:43:31.708Z,3.43
2018-06-17T16:45:59.957Z,4.10
2018-06-17T16:48:28.162Z,3.37
2018-06-17T16:52:04.559Z,3.43
2018-06-17T16:54:38.177Z,4.27
2018-06-17T16:57:11.755Z,3.27
2018-06-17T16:59:45.432Z,3.40
2018-06-17T17:02:13.631Z,3.20
2018-06-17T17:04:41.885Z,3.67
2018-06-17T17:07:10.117Z,4.63
2018-06-17T17:09:38.309Z,3.30
2018-06-17T17:12:06.567Z,3.17
2018-06-17T17:14:34.833Z,3.37
2018-06-17T17:17:03.025Z,3.90
2018-06-17T17:19:31.200Z,3.50
2018-06-17T17:21:59.458Z,3.20
2018-06-17T17:24:27.669Z,3.60
2018-06-17T17:26:55.934Z,3.80
2018-06-17T17:29:24.198Z,3.50
2018-06-17T17:31:57.886Z,3.50
2018-06-17T17:34:31.666Z,3.30
2018-06-17T17:37:06.598Z,3.60
2018-06-17T17:39:40.224Z,3.57
2018-06-17T17:42:08.471Z,3.00
2018-06-17T17:44:42.344Z,3.50
2018-06-17T17:47:16.098Z,6.53
2018-06-17T17:49:44.362Z,4.50
2018-06-17T17:52:12.627Z,9.37
2018-06-17T17:54:40.905Z,2.90
2018-06-17T17:57:09.188Z,4.03
2018-06-17T17:59:37.450Z,4.10
2018-06-17T18:02:05.973Z,3.37
2018-06-17T18:04:34.201Z,3.73
2018-06-17T18:07:02.914Z,3.40
2018-06-17T18:09:31.460Z,3.43
2018-06-17T18:12:00.001Z,3.63
2018-06-17T18:14:28.594Z,3.20
2018-06-17T18:16:57.133Z,3.13
2018-06-17T18:19:25.458Z,4.20
2018-06-17T18:21:53.685Z,3.60
2018-06-17T18:24:21.885Z,3.40
2018-06-17T18:26:55.375Z,3.80
2018-06-17T18:29:29.136Z,3.63
2018-06-17T18:32:02.830Z,3.57
2018-06-17T18:34:36.633Z,3.17
2018-06-17T18:37:05.060Z,3.57
2018-06-17T18:39:33.274Z,3.70
2018-06-17T18:42:01.489Z,3.30
2018-06-17T18:44:29.705Z,3.10
2018-06-17T18:46:57.917Z,3.33
2018-06-17T18:49:26.121Z,3.20
2018-06-17T18:51:54.351Z,3.77
2018-06-17T18:54:22.532Z,3.60
2018-06-17T18:56:51.070Z,3.27
2018-06-17T18:59:19.234Z,3.50
2018-06-17T19:01:47.517Z,3.60
2018-06-17T19:04:15.704Z,3.33
2018-06-17T19:06:43.905Z,3.30
2018-06-17T19:09:17.581Z,3.10
2018-06-17T19:11:51.238Z,2.97
2018-06-17T19:14:24.594Z,3.40
2018-06-17T19:16:58.282Z,3.43
2018-06-17T19:19:26.501Z,2.87
2018-06-17T19:21:54.920Z,3.37
2018-06-17T19:24:23.070Z,3.80
2018-06-17T19:26:51.245Z,2.97
2018-06-17T19:29:19.892Z,3.33
2018-06-17T19:31:48.325Z,2.60
2018-06-17T19:34:16.506Z,4.00
2018-06-17T19:36:44.697Z,3.47
2018-06-17T19:39:12.941Z,3.00
2018-06-17T19:41:41.121Z,3.10
2018-06-17T19:44:09.322Z,3.50
2018-06-17T19:46:37.511Z,3.50
2018-06-17T19:49:05.819Z,3.20
2018-06-17T19:51:39.730Z,3.70
2018-06-17T19:54:13.289Z,3.20
2018-06-17T19:56:46.829Z,3.30
2018-06-17T19:59:20.534Z,3.60
2018-06-17T20:01:48.736Z,3.00
2018-06-17T20:04:16.981Z,3.60
2018-06-17T20:06:45.182Z,3.83
2018-06-17T20:09:13.633Z,3.80
2018-06-17T20:11:41.874Z,4.47
2018-06-17T20:14:10.031Z,6.10
2018-06-17T20:16:38.356Z,3.80
2018-06-17T20:19:06.645Z,3.97
2018-06-17T20:21:34.813Z,4.00
2018-06-17T20:24:03.110Z,3.73
2018-06-17T20:26:31.316Z,3.40
2018-06-17T20:28:59.485Z,3.40
2018-06-17T20:31:27.689Z,3.53
2018-06-17T20:34:01.230Z,3.73
2018-06-17T20:36:34.602Z,5.00
2018-06-17T20:39:08.240Z,4.47
2018-06-17T20:41:41.764Z,5.20
2018-06-17T20:44:09.921Z,4.03
2018-06-17T20:46:38.138Z,3.27
2018-06-17T20:49:06.294Z,3.70
2018-06-17T20:51:34.498Z,4.03
2018-06-17T20:54:02.782Z,4.77
2018-06-17T20:56:31.045Z,4.10
2018-06-17T20:58:59.246Z,3.60
2018-06-17T21:01:27.460Z,3.87
2018-06-17T21:03:55.664Z,3.70
2018-06-17T21:06:24.121Z,4.53
2018-06-17T21:08:52.313Z,4.50
2018-06-17T21:11:20.543Z,6.87
2018-06-17T21:13:49.177Z,17.57
2018-06-17T21:16:17.656Z,6.90
2018-06-17T21:18:51.292Z,5.10
2018-06-17T21:21:25.044Z,4.57
2018-06-17T21:23:58.580Z,5.53
2018-06-17T21:26:32.169Z,4.30
2018-06-17T21:29:00.505Z,4.60
2018-06-17T21:31:28.741Z,4.33
2018-06-17T21:33:57.117Z,5.20
2018-06-17T21:36:25.311Z,4.53
2018-06-17T21:38:53.504Z,3.87
2018-06-17T21:41:21.697Z,4.30
2018-06-17T21:43:49.925Z,4.23
2018-06-17T21:46:18.117Z,4.10
2018-06-17T21:48:46.450Z,3.40
2018-06-17T21:51:14.650Z,4.60
2018-06-17T21:53:43.358Z,4.37
2018-06-17T21:56:11.578Z,3.73
2018-06-17T21:58:47.722Z,4.60
2018-06-17T22:01:16.519Z,4.43
2018-06-17T22:03:44.981Z,4.50
2018-06-17T22:06:13.208Z,4.93
2018-06-17T22:08:46.922Z,4.70
2018-06-17T22:11:20.546Z,3.93
2018-06-17T22:13:54.126Z,4.43
2018-06-17T22:16:27.693Z,4.33
2018-06-17T22:18:55.902Z,3.60
2018-06-17T22:21:24.105Z,4.50
2018-06-17T22:23:52.298Z,3.90
2018-06-17T22:26:20.487Z,5.23
2018-06-17T22:28:49.014Z,4.57
2018-06-17T22:31:17.230Z,4.83
2018-06-17T22:33:45.430Z,4.30
2018-06-17T22:36:13.609Z,34.83
2018-06-17T22:38:41.795Z,13.70
2018-06-17T22:41:09.998Z,7.57
2018-06-17T22:43:38.173Z,3.93
2018-06-17T22:46:06.487Z,4.83
2018-06-17T22:48:34.677Z,4.13
2018-06-17T22:51:02.883Z,4.47
2018-06-17T22:53:42.439Z,4.17
2018-06-17T22:56:15.924Z,9.47
2018-06-17T22:58:49.441Z,7.60
2018-06-17T23:01:22.927Z,4.07
2018-06-17T23:03:56.600Z,4.50
2018-06-17T23:06:30.254Z,4.77
2018-06-17T23:09:03.938Z,4.63
2018-06-17T23:11:32.085Z,4.27
2018-06-17T23:14:00.213Z,4.07
2018-06-17T23:16:28.372Z,4.53
2018-06-17T23:18:56.530Z,4.10
2018-06-17T23:21:24.706Z,4.30
2018-06-17T23:23:53.038Z,4.87
2018-06-17T23:26:21.208Z,4.70
2018-06-17T23:28:49.361Z,4.43
2018-06-17T23:31:17.541Z,4.73
2018-06-17T23:33:45.698Z,4.40
2018-06-17T23:38:48.497Z,4.40
2018-06-17T23:41:16.650Z,4.83
2018-06-17T23:43:46.108Z,5.00
2018-06-17T23:46:19.677Z,4.47
2018-06-17T23:48:53.417Z,4.73
2018-06-17T23:51:27.020Z,4.37
2018-06-17T23:54:00.532Z,4.77
2018-06-17T23:56:28.473Z,5.20
2018-06-17T23:58:56.637Z,4.80
